Tiempo atmosférico en la estación meteorológica de Renteria, Gipuzkoa (165 m.)



Fecha
DESCASC
Temp. máxima en grados centígrados (hora)
DESCASC
Temp. mínima en grados centígrados (hora)
DESCASC
Temp. media en grados centígrados
DESCASC
Racha de viento máxima en m/sg (hora)
DESCASC
Velocidad máxima media en intervalos de 10 minutos(hora)
DESCASC
Precipitaciones diarias en mm
DESCASC
Precipitaciones de 00:00 a 06:00 en mm
DESCASC
Precipitaciones de 06:00 a 12:00 en mm
DESCASC
Precipitaciones de 12:00 a 18:00 en mm
DESCASC
Precipitaciones de 18:00 a 24:00 en mm
DESCASC
30-11-2020 15.7 (13:00) 4.5 (08:30) 10.1 2.78 (15:00) 1.11 (23:10) 0 0 0 0 0
29-11-2020 20.3 (14:50) 6.3 (00:00) 13.3 5.83 (13:50) 3.33 (14:00) 0 0 0 0 0
28-11-2020 18.5 (15:00) 4.9 (00:00) 11.7 5 (15:30) 2.78 (15:30) 0 0 0 0 0
27-11-2020 19.7 (15:20) 7.7 (00:00) 13.7 15.28 (00:30) 6.67 (00:20) 0 0 0 0 0
26-11-2020 18.3 (15:10) 14.4 (00:00) 16.3 14.72 (11:30) 7.78 (11:10) 0 0 0 0 0
25-11-2020 17.2 (13:30) 9.1 (00:00) 13.2 11.94 (11:40) 6.11 (12:00) 0 0 0 0 0
24-11-2020 18.1 (14:10) 4.3 (00:00) 11.2 10.83 (09:30) 6.39 (10:00) 0 0 0 0 0
23-11-2020 16.4 (15:10) 2.2 (00:00) 9.3 3.33 (14:40) 1.67 (15:30) 0 0 0 0 0
22-11-2020 17.1 (14:40) 1.4 (00:00) 9.3 3.06 (15:10) 1.39 (15:10) 0 0 0 0 0
21-11-2020 14.2 (14:00) 0.4 (00:00) 7.3 4.17 (14:40) 2.22 (14:40) 0 0 0 0 0
20-11-2020 13.2 (11:50) 3.7 (00:00) 8.4 5.83 (13:50) 3.33 (14:10) 1.2 0.4 0.6 0.2 0
19-11-2020 13.4 (09:40) 8.9 (00:00) 11.1 7.22 (13:50) 3.89 (09:10) 8.6 0 5.8 2.6 0.2
18-11-2020 25.6 (13:30) 10.2 (00:00) 17.9 11.11 (08:20) 6.39 (01:50) 0 0 0 0 0
17-11-2020 20.1 (15:20) 4.8 (00:00) 12.5 10 (22:10) 5 (22:20) 0 0 0 0 0
16-11-2020 15.7 (13:10) 7 (00:00) 11.3 3.89 (20:20) 2.22 (20:20) 8.8 5.8 3 0 0
15-11-2020 22.2 (14:40) 12.1 (00:00) 17.2 20 (10:00) 8.89 (09:30) 14.2 0 0 1.6 12.6
14-11-2020 19.3 (12:40) 13.5 (00:00) 16.4 16.39 (13:30) 8.89 (13:30) 0 0 0 0 0
13-11-2020 22 (13:10) 13.4 (00:00) 17.7 10.56 (02:30) 6.67 (02:30) 0 0 0 0 0
12-11-2020 22.6 (15:50) 8.9 (00:00) 15.8 8.61 (19:10) 5 (18:30) 0 0 0 0 0
11-11-2020 20.1 (15:40) 7.4 (00:00) 13.8 10.56 (15:00) 5.28 (14:20) 0.2 0 0.2 0 0
10-11-2020 15.7 (15:10) 8.6 (00:00) 12.2 2.78 (15:00) 1.67 (15:00) 9 0 7.8 1.2 0
09-11-2020 22.8 (14:50) 9.3 (00:00) 16 10.56 (00:20) 5.83 (00:10) 0 0 0 0 0
08-11-2020 20.5 (15:30) 15 (00:00) 17.8 13.33 (12:10) 6.11 (12:10) 0 0 0 0 0
07-11-2020 20.7 (00:00) 15.1 (00:00) 17.9 14.17 (01:00) 6.39 (01:00) 4.6 0 4.4 0.2 0
06-11-2020 21.5 (14:20) 17 (00:00) 19.3 17.78 (08:40) 8.89 (08:40) 0 0 0 0 0
05-11-2020 19.5 (15:00) 5.1 (00:00) 12.3 10.83 (21:50) 4.44 (23:40) 0 0 0 0 0
04-11-2020 10.9 (13:50) 6 (00:00) 8.4 3.61 (14:30) 1.67 (08:00) 2.6 2.6 0 0 0
03-11-2020 13.9 (12:20) 9 (00:00) 11.4 6.11 (12:50) 2.78 (15:20) 18.2 6.8 1 7.2 3.2
02-11-2020 24.3 (15:00) 12.6 (00:00) 18.4 11.67 (16:00) 4.72 (11:20) 7 0 0 3.6 3.4

Gráficas

Temp. máximas Temp. mínimas Temp. medias Precipitaciones Rachas de viento máximas Velocidades máximas media en intervalos de 10 minutos

Datos horarios

Fecha y hora oficial Temperatura (ºC) Velocidad del viento (km/h) Dirección del viento Racha (km/h) Dirección de racha Precipitación (mm) Presión (hPa) Tendencia (hPa) Humedad (%)
2020-12-01 23:00:00 8.4 3 Sudoeste 10 Sudoeste 0.4 -- -- 98
2020-12-01 22:00:00 8.7 4 Sudoeste 32 Norte 0.4 -- -- 95
2020-12-01 21:00:00 9.8 12 Noroeste 28 Noroeste 6.4 -- -- 96
2020-12-01 20:00:00 10.4 8 Norte 24 Nordeste 5.6 -- -- 96
2020-12-01 19:00:00 11.4 9 Noroeste 25 Sur 0.2 -- -- 87
2020-12-01 18:00:00 11.7 5 Sudoeste 17 Sudoeste 0 -- -- 82
2020-12-01 17:00:00 12 4 Nordeste 10 Este 0 -- -- 82
2020-12-01 16:00:00 12.7 3 Nordeste 21 Sudoeste 0 -- -- 78
2020-12-01 15:00:00 13 4 Oeste 16 Sudoeste 0 -- -- 75
2020-12-01 14:00:00 12.9 5 Sur 13 Sudoeste 0 -- -- 79
2020-12-01 13:00:00 11.5 5 Sur 9 Sur 0 -- -- 89
2020-12-01 12:00:00 9 2 Sudoeste 3 Sudoeste 0 -- -- 100
2020-12-01 11:00:00 8.1 0 Calma 5 Sudoeste 0 -- -- 100
2020-12-01 10:00:00 6.8 2 Sudoeste 5 Oeste 0 -- -- 100
2020-12-01 09:00:00 6.3 2 Sur 5 Sur 0 -- -- 100
2020-12-01 08:00:00 6.3 2 Sudoeste 6 Sur 0 -- -- 100
2020-12-01 07:00:00 6.5 3 Sudoeste 5 Sur 0 -- -- 100
2020-12-01 06:00:00 6.9 2 Sudoeste 5 Sudoeste 0 -- -- 100
2020-12-01 05:00:00 7.1 2 Sur 6 Sudeste 0 -- -- 100
2020-12-01 04:00:00 7.4 3 Sur 5 Sudeste 0 -- -- 100
2020-12-01 03:00:00 7.5 0 Calma 6 Sudeste 0 -- -- 100
2020-12-01 02:00:00 7.8 2 Sudoeste 5 Sudeste 0 -- -- 99
2020-12-01 01:00:00 8.1 3 Sudeste 6 Sudeste 0 -- -- 99
2020-12-01 00:00:00 8.7 0 Calma 7 Sudeste 0 -- -- 99
2020-11-30 23:00:00 9.2 3 Sur 6 Sudeste 0 -- -- 97
2020-11-30 22:00:00 9.9 0 Calma 4 Sudeste 0 -- -- 97
2020-11-30 21:00:00 10.2 2 Oeste 5 Noroeste 0 -- -- 97
2020-11-30 20:00:00 11.2 2 Sudoeste 6 Sudoeste 0 -- -- 94
2020-11-30 19:00:00 11.7 3 Oeste 9 Noroeste 0 -- -- 92
2020-11-30 18:00:00 12.2 3 Noroeste 9 Oeste 0 -- -- 91
2020-11-30 17:00:00 12.9 3 Noroeste 7 Norte 0 -- -- 88
2020-11-30 16:00:00 13.5 3 Oeste 10 Sudoeste 0 -- -- 81
2020-11-30 15:00:00 14.1 3 Noroeste 10 Oeste 0 -- -- 83
2020-11-30 14:00:00 15 0 Calma 9 Nordeste 0 -- -- 79
2020-11-30 13:00:00 15.7 3 Nordeste 6 Este 0 -- -- 77
2020-11-30 12:00:00 10.8 2 Norte 4 Norte 0 -- -- 91
2020-11-30 11:00:00 7.8 0 Calma 3 Norte 0 -- -- 100
2020-11-30 10:00:00 5.8 0 Calma 3 Nordeste 0 -- -- 100
2020-11-30 09:00:00 4.5 0 Calma 5 Sur 0 -- -- 100
2020-11-30 08:00:00 5 2 Norte 6 Noroeste 0 -- -- 100
2020-11-30 07:00:00 5 2 Nordeste 5 Noroeste 0 -- -- 100
2020-11-30 06:00:00 4.9 0 Calma 4 Sur 0 -- -- 100
2020-11-30 05:00:00 5.1 2 Oeste 5 Norte 0 -- -- 100
2020-11-30 04:00:00 5.5 0 Calma 4 Sudeste 0 -- -- 100
2020-11-30 03:00:00 5.7 3 Sudeste 5 Norte 0 -- -- 99
2020-11-30 02:00:00 6.1 0 Calma 4 Noroeste 0 -- -- 99
2020-11-30 01:00:00 6.4 0 Calma 4 Oeste 0 -- -- 98
2020-11-30 00:00:00 7 0 Calma 6 Noroeste 0 -- -- 98
2020-11-29 23:00:00 7.5 0 Calma 7 Noroeste 0 -- -- 96
2020-11-29 22:00:00 8.5 2 Oeste 6 Noroeste 0 -- -- 94
2020-11-29 21:00:00 9.4 4 Noroeste 8 Noroeste 0 -- -- 94
2020-11-29 20:00:00 10.4 4 Noroeste 6 Noroeste 0 -- -- 89
2020-11-29 19:00:00 11.7 2 Sudoeste 8 Noroeste 0 -- -- 83
2020-11-29 18:00:00 13.4 2 Sudoeste 8 Sudoeste 0 -- -- 75
2020-11-29 17:00:00 16.6 5 Sudoeste 12 Sudeste 0 -- -- 60
2020-11-29 16:00:00 19.2 6 Sur 15 Sudeste 0 -- -- 51
2020-11-29 15:00:00 20.2 9 Sudeste 19 Sudeste 0 -- -- 49
2020-11-29 14:00:00 18.9 12 Este 21 Este 0 -- -- 51
2020-11-29 13:00:00 18.4 8 Este 15 Este 0 -- -- 61
2020-11-29 12:00:00 15.1 3 Sudoeste 5 Sur 0 -- -- 79
2020-11-29 11:00:00 12.1 0 Calma 4 Norte 0 -- -- 89
2020-11-29 10:00:00 8.6 2 Nordeste 7 Norte 0 -- -- 99
2020-11-29 09:00:00 7.4 4 Norte 10 Noroeste 0 -- -- 100
2020-11-29 08:00:00 7 5 Norte 9 Noroeste 0 -- -- 100
2020-11-29 07:00:00 7.1 5 Noroeste 10 Norte 0 -- -- 100
2020-11-29 06:00:00 6.5 3 Norte 9 Norte 0 -- -- 100
2020-11-29 05:00:00 6.6 0 Calma 8 Norte 0 -- -- 99
2020-11-29 04:00:00 6.8 0 Calma 8 Norte 0 -- -- 99
2020-11-29 03:00:00 7.6 0 Calma 13 Norte 0 -- -- 98
2020-11-29 02:00:00 7.5 5 Norte 11 Noroeste 0 -- -- 99
2020-11-29 01:00:00 7.5 3 Noroeste 7 Norte 0 -- -- 98
2020-11-29 00:00:00 7.9 0 Calma 12 Noroeste 0 -- -- 97
2020-11-28 23:00:00 8.7 4 Noroeste 13 Norte 0 -- -- 98
2020-11-28 22:00:00 8.9 4 Norte 10 Noroeste 0 -- -- 97
2020-11-28 21:00:00 9.4 4 Noroeste 9 Noroeste 0 -- -- 96
2020-11-28 20:00:00 10.2 3 Norte 8 Noroeste 0 -- -- 95
2020-11-28 19:00:00 11 2 Sur 6 Noroeste 0 -- -- 88
2020-11-28 18:00:00 12.6 0 Calma 7 Sudoeste 0 -- -- 84
2020-11-28 17:00:00 15.5 0 Calma 9 Sudoeste 0 -- -- 70
2020-11-28 16:00:00 16.6 6 Sudoeste 18 Sudoeste 0 -- -- 68
2020-11-28 15:00:00 18.5 4 Sur 10 Sudoeste 0 -- -- 61
2020-11-28 14:00:00 15.4 0 Calma 4 Sudoeste 0 -- -- 70
2020-11-28 13:00:00 12.3 2 Sur 4 Sudoeste 0 -- -- 87
2020-11-28 12:00:00 10.4 0 Calma 4 Sudoeste 0 -- -- 89
2020-11-28 11:00:00 10.1 0 Calma 4 Este 0 -- -- 92
2020-11-28 10:00:00 6.8 0 Calma 4 Sudeste 0 -- -- 100
2020-11-28 09:00:00 5.2 0 Calma 5 Sur 0 -- -- 100
2020-11-28 08:00:00 5.2 0 Calma 5 Sur 0 -- -- 100
2020-11-28 07:00:00 5.5 0 Calma 6 Nordeste 0 -- -- 100
2020-11-28 06:00:00 5.6 0 Calma 4 Sudeste 0 -- -- 100
2020-11-28 05:00:00 5.9 0 Calma 4 Sudeste 0 -- -- 100
2020-11-28 04:00:00 5.9 0 Calma 4 Sudeste 0 -- -- 98
2020-11-28 03:00:00 6.4 0 Calma 5 Sur 0 -- -- 98
2020-11-28 02:00:00 6.6 2 Sur 4 Sur 0 -- -- 97
2020-11-28 01:00:00 7.1 0 Calma 5 Noroeste 0 -- -- 96
2020-11-28 00:00:00 7.7 0 Calma 5 Este 0 -- -- 94
2020-11-27 23:00:00 8.4 0 Calma 9 Noroeste 0 -- -- 93
2020-11-27 22:00:00 9.3 4 Noroeste 8 Norte 0 -- -- 94
2020-11-27 21:00:00 10.3 2 Noroeste 9 Noroeste 0 -- -- 90
2020-11-27 20:00:00 11.1 4 Noroeste 9 Noroeste 0 -- -- 87
2020-11-27 19:00:00 12.5 4 Noroeste 8 Noroeste 0 -- -- 83
2020-11-27 18:00:00 14.7 2 Sudoeste 6 Sudoeste 0 -- -- 71
2020-11-27 17:00:00 17 3 Oeste 15 Sudeste 0 -- -- 62
2020-11-27 16:00:00 19 6 Este 25 Sudeste 0 -- -- 51
2020-11-27 15:00:00 19 7 Sudeste 25 Sudeste 0 -- -- 49
2020-11-27 14:00:00 17.9 7 Sudeste 27 Este 0 -- -- 54
2020-11-27 13:00:00 17.6 10 Este 28 Este 0 -- -- 50
2020-11-27 12:00:00 17.7 12 Este 26 Nordeste 0 -- -- 52
2020-11-27 11:00:00 17.4 5 Nordeste 14 Nordeste 0 -- -- 57
2020-11-27 10:00:00 16 8 Sudeste 31 Sudeste 0 -- -- 58
2020-11-27 09:00:00 16.4 8 Sudeste 29 Este 0 -- -- 56
2020-11-27 08:00:00 15.8 9 Nordeste 26 Nordeste 0 -- -- 59
2020-11-27 07:00:00 16.3 8 Este 32 Sudeste 0 -- -- 59
2020-11-27 06:00:00 16.7 17 Sudeste 39 Sur 0 -- -- 58
2020-11-27 05:00:00 16.7 12 Este 32 Sudeste 0 -- -- 60
2020-11-27 04:00:00 16.5 9 Este 27 Este 0 -- -- 59
2020-11-27 03:00:00 16.8 14 Sudeste 39 Este 0 -- -- 57
2020-11-27 02:00:00 17 14 Sudeste 32 Este 0 -- -- 56
2020-11-27 01:00:00 17.1 18 Sudeste 55 Este 0 -- -- 55
2020-11-27 00:00:00 16.8 19 Sudeste 43 Sudeste 0 -- -- 56
2020-11-26 23:00:00 17 18 Sudeste 43 Sudeste 0 -- -- 56
2020-11-26 22:00:00 16.5 14 Este 36 Este 0 -- -- 59
2020-11-26 21:00:00 16.2 15 Sudeste 40 Sudeste 0 -- -- 59
2020-11-26 20:00:00 16 13 Sudeste 29 Sudeste 0 -- -- 61
2020-11-26 19:00:00 16.4 10 Sudeste 32 Sur 0 -- -- 61
2020-11-26 18:00:00 17 8 Sur 48 Sur 0 -- -- 59
2020-11-26 17:00:00 17.1 13 Sudeste 39 Nordeste 0 -- -- 58
2020-11-26 16:00:00 17.5 14 Sudeste 44 Sudeste 0 -- -- 56
2020-11-26 15:00:00 17.9 12 Sur 42 Este 0 -- -- 58
2020-11-26 14:00:00 17.2 17 Este 51 Este 0 -- -- 58
2020-11-26 13:00:00 18 14 Este 49 Este 0 -- -- 54
2020-11-26 12:00:00 16.7 24 Sudeste 53 Sudeste 0 -- -- 58
2020-11-26 11:00:00 16.5 28 Sudeste 51 Sudeste 0 -- -- 56
2020-11-26 10:00:00 16 20 Este 37 Este 0 -- -- 57
2020-11-26 09:00:00 15.2 18 Este 43 Sur 0 -- -- 61
2020-11-26 08:00:00 15 18 Sudeste 45 Este 0 -- -- 59
2020-11-26 07:00:00 14.8 10 Sudeste 46 Este 0 -- -- 59
2020-11-26 06:00:00 14.6 15 Sudeste 42 Sudeste 0 -- -- 61
2020-11-26 05:00:00 14.7 15 Sudeste 40 Sudeste 0 -- -- 61
2020-11-26 04:00:00 14.6 9 Sudeste 34 Nordeste 0 -- -- 60
2020-11-26 03:00:00 14.4 13 Sudeste 45 Este 0 -- -- 61
2020-11-26 02:00:00 14.7 20 Sudeste 46 Sudeste 0 -- -- 59
2020-11-26 01:00:00 15 18 Sudeste 42 Sudeste 0 -- -- 55
2020-11-26 00:00:00 14.9 15 Sudeste 34 Este 0 -- -- 58
2020-11-25 23:00:00 14.8 11 Sur 40 Sur 0 -- -- 58
2020-11-25 22:00:00 14.7 17 Sur 42 Sudeste 0 -- -- 57
2020-11-25 21:00:00 14.4 7 Sudeste 19 Este 0 -- -- 56
2020-11-25 20:00:00 14.2 6 Sur 17 Este 0 -- -- 54
2020-11-25 19:00:00 14.3 5 Nordeste 28 Sudeste 0 -- -- 56
2020-11-25 18:00:00 14.9 12 Sur 37 Sudeste 0 -- -- 54
2020-11-25 17:00:00 15.8 15 Sur 31 Sur 0 -- -- 46
2020-11-25 16:00:00 17 14 Sur 36 Sur 0 -- -- 49
2020-11-25 15:00:00 17.1 12 Sudeste 42 Sudeste 0 -- -- 53
2020-11-25 14:00:00 16.7 12 Sur 36 Este 0 -- -- 51
2020-11-25 13:00:00 16.4 12 Sudeste 39 Sudeste 0 -- -- 50
2020-11-25 12:00:00 15.7 22 Sudeste 43 Sudeste 0 -- -- 52
2020-11-25 11:00:00 14.9 16 Sudeste 36 Sudeste 0 -- -- 53
2020-11-25 10:00:00 13.1 9 Sudeste 26 Sudeste 0 -- -- 62
2020-11-25 09:00:00 9.5 0 Calma 8 Norte 0 -- -- 86
2020-11-25 08:00:00 9.5 5 Norte 8 Noroeste 0 -- -- 83
2020-11-25 07:00:00 10.2 3 Sur 9 Sudeste 0 -- -- 73
2020-11-25 06:00:00 10 4 Sudoeste 9 Sudoeste 0 -- -- 71
2020-11-25 05:00:00 11.6 8 Sur 18 Sur 0 -- -- 64
2020-11-25 04:00:00 11.7 8 Sur 24 Sudeste 0 -- -- 60
2020-11-25 03:00:00 12.9 14 Sudeste 40 Sur 0 -- -- 54
2020-11-25 02:00:00 13.3 14 Sudeste 36 Este 0 -- -- 50
2020-11-25 01:00:00 13.9 15 Sudeste 32 Sudeste 0 -- -- 46
2020-11-25 00:00:00 13.7 10 Sudeste 26 Sudeste 0 -- -- 45
2020-11-24 23:00:00 13.8 11 Sudeste 26 Sudeste 0 -- -- 48
2020-11-24 22:00:00 13.6 13 Sudeste 34 Sudeste 0 -- -- 49
2020-11-24 21:00:00 14 19 Sudeste 34 Sudeste 0 -- -- 48
2020-11-24 20:00:00 13.8 13 Sur 28 Sudeste 0 -- -- 52
2020-11-24 19:00:00 13.9 14 Sur 24 Sur 0 -- -- 52
2020-11-24 18:00:00 14.4 10 Sur 23 Sudeste 0 -- -- 53
2020-11-24 17:00:00 16.6 7 Sudeste 22 Sudeste 0 -- -- 45
2020-11-24 16:00:00 17.6 6 Sudeste 18 Este 0 -- -- 42
2020-11-24 15:00:00 17.7 8 Este 16 Este 0 -- -- 45
2020-11-24 14:00:00 18 4 Sur 24 Sudoeste 0 -- -- 42
2020-11-24 13:00:00 17.6 6 Sur 26 Sudeste 0 -- -- 43
2020-11-24 12:00:00 18 10 Sudeste 28 Nordeste 0 -- -- 42
2020-11-24 11:00:00 16.1 12 Sudeste 32 Este 0 -- -- 43
2020-11-24 10:00:00 14.9 23 Sudeste 39 Sur 0 -- -- 45
2020-11-24 09:00:00 13.2 11 Sur 32 Sudeste 0 -- -- 47
2020-11-24 08:00:00 11.8 15 Sur 34 Sudeste 0 -- -- 52
2020-11-24 07:00:00 8.6 6 Noroeste 14 Noroeste 0 -- -- 86
2020-11-24 06:00:00 6.3 7 Noroeste 16 Noroeste 0 -- -- 100
2020-11-24 05:00:00 5 6 Norte 11 Noroeste 0 -- -- 100
2020-11-24 04:00:00 4.3 3 Noroeste 10 Norte 0 -- -- 100
2020-11-24 03:00:00 4.7 3 Nordeste 7 Norte 0 -- -- 100
2020-11-24 02:00:00 4.6 0 Calma 4 Norte 0 -- -- 100
2020-11-24 01:00:00 4.4 2 Sudeste 5 Sudeste 0 -- -- 99
2020-11-24 00:00:00 4.8 3 Sur 8 Norte 0 -- -- 99
2020-11-23 23:00:00 5.2 0 Calma 8 Sudeste 0 -- -- 98
2020-11-23 22:00:00 6 4 Sur 9 Sudeste 0 -- -- 97
2020-11-23 21:00:00 6.8 2 Sudoeste 6 Sur 0 -- -- 96
2020-11-23 20:00:00 7.9 2 Sudoeste 5 Sudeste 0 -- -- 95
2020-11-23 19:00:00 9.3 2 Sur 7 Sudeste 0 -- -- 91
2020-11-23 18:00:00 11.2 2 Sudoeste 5 Sudoeste 0 -- -- 85
2020-11-23 17:00:00 14 3 Sudoeste 8 Sudoeste 0 -- -- 74
2020-11-23 16:00:00 15.7 3 Sur 10 Sudoeste 0 -- -- 66
2020-11-23 15:00:00 16.2 3 Sudeste 12 Sudoeste 0 -- -- 64
2020-11-23 14:00:00 16 3 Sur 9 Sur 0 -- -- 63
2020-11-23 13:00:00 15 4 Sur 8 Sur 0 -- -- 69
2020-11-23 12:00:00 12 3 Sur 5 Sur 0 -- -- 84
2020-11-23 11:00:00 7.9 0 Calma 5 Nordeste 0 -- -- 94
2020-11-23 10:00:00 4.6 0 Calma 4 Sur 0 -- -- 100
2020-11-23 09:00:00 2.3 2 Sudoeste 6 Sudeste 0 -- -- 100
2020-11-23 08:00:00 2.6 3 Sudeste 6 Sudeste 0 -- -- 100
2020-11-23 07:00:00 2.3 0 Calma 5 Sudeste 0 -- -- 100
2020-11-23 06:00:00 2.3 2 Sur 5 Sur 0 -- -- 100
2020-11-23 05:00:00 2.5 0 Calma 7 Sudeste 0 -- -- 100
2020-11-23 04:00:00 2.6 2 Sur 6 Sur 0 -- -- 100
2020-11-23 03:00:00 2.6 4 Sur 6 Sudeste 0 -- -- 100
2020-11-23 02:00:00 2.6 2 Sur 6 Sudeste 0 -- -- 99
2020-11-23 01:00:00 3.1 0 Calma 4 Sudoeste 0 -- -- 99
2020-11-23 00:00:00 3.5 0 Calma 6 Sudeste 0 -- -- 98
2020-11-22 23:00:00 3.8 2 Sur 5 Sudeste 0 -- -- 97
2020-11-22 22:00:00 4.6 3 Sur 5 Sur 0 -- -- 95
2020-11-22 21:00:00 5.5 3 Sudoeste 6 Sur 0 -- -- 93
2020-11-22 20:00:00 6.7 0 Calma 5 Noroeste 0 -- -- 90
2020-11-22 19:00:00 8 0 Calma 5 Sudoeste 0 -- -- 85
2020-11-22 18:00:00 9.8 3 Sur 6 Sur 0 -- -- 76
2020-11-22 17:00:00 14.2 3 Sudoeste 10 Oeste 0 -- -- 58
2020-11-22 16:00:00 16.5 4 Sur 11 Oeste 0 -- -- 53
2020-11-22 15:00:00 16.1 4 Noroeste 11 Norte 0 -- -- 49
2020-11-22 14:00:00 16.9 2 Norte 10 Sudoeste 0 -- -- 47
2020-11-22 13:00:00 15 2 Sudeste 6 Sudoeste 0 -- -- 60
2020-11-22 12:00:00 11.9 0 Calma 4 Sudoeste 0 -- -- 78
2020-11-22 11:00:00 7.6 2 Sur 4 Norte 0 -- -- 88
2020-11-22 10:00:00 5.5 0 Calma 4 Norte 0 -- -- 98
2020-11-22 09:00:00 3 2 Norte 6 Noroeste 0 -- -- 100
2020-11-22 08:00:00 1.8 0 Calma 4 Este 0 -- -- 100
2020-11-22 07:00:00 1.5 0 Calma 4 Noroeste 0 -- -- 100
2020-11-22 06:00:00 1.7 0 Calma 4 Norte 0 -- -- 100
2020-11-22 05:00:00 1.7 2 Norte 5 Norte 0 -- -- 100
2020-11-22 04:00:00 1.4 0 Calma 6 Norte 0 -- -- 100
2020-11-22 03:00:00 1.7 2 Este 5 Sudeste 0 -- -- 100
2020-11-22 02:00:00 1.7 0 Calma 5 Este 0 -- -- 100
2020-11-22 01:00:00 2.2 0 Calma 5 Noroeste 0 -- -- 100
2020-11-22 00:00:00 2.7 2 Sur 6 Sur 0 -- -- 99
2020-11-21 23:00:00 3.2 0 Calma 6 Sudeste 0 -- -- 98
2020-11-21 22:00:00 3.7 0 Calma 5 Sudeste 0 -- -- 98
2020-11-21 21:00:00 4.7 0 Calma 5 Sur 0 -- -- 96
2020-11-21 20:00:00 5.5 2 Sudoeste 8 Sudoeste 0 -- -- 95
2020-11-21 19:00:00 6.6 2 Oeste 6 Noroeste 0 -- -- 92
2020-11-21 18:00:00 8.2 4 Sur 6 Sudoeste 0 -- -- 84
2020-11-21 17:00:00 12.3 4 Sudoeste 10 Oeste 0 -- -- 69
2020-11-21 16:00:00 13.3 4 Sudoeste 10 Sudoeste 0 -- -- 63
2020-11-21 15:00:00 14.1 3 Sudoeste 15 Sudoeste 0 -- -- 61
2020-11-21 14:00:00 14.2 5 Sur 10 Sur 0 -- -- 60
2020-11-21 13:00:00 12.1 4 Sur 6 Sudoeste 0 -- -- 71
2020-11-21 12:00:00 10.3 3 Sur 5 Sur 0 -- -- 82
2020-11-21 11:00:00 6.8 0 Calma 4 Sur 0 -- -- 100
2020-11-21 10:00:00 3.2 2 Sur 6 Sudoeste 0 -- -- 100
2020-11-21 09:00:00 1.2 2 Sudoeste 6 Sudeste 0 -- -- 100
2020-11-21 08:00:00 0.4 2 Sur 5 Sudeste 0 -- -- 100
2020-11-21 07:00:00 0.7 3 Sur 6 Sur 0 -- -- 100
2020-11-21 06:00:00 1.1 2 Sur 5 Sur 0 -- -- 100
2020-11-21 05:00:00 1.3 3 Sur 6 Sudeste 0 -- -- 100
2020-11-21 04:00:00 1.8 0 Calma 5 Sur 0 -- -- 100
2020-11-21 03:00:00 2.3 2 Sur 5 Sudeste 0 -- -- 100
2020-11-21 02:00:00 2.7 3 Sudoeste 5 Sudoeste 0 -- -- 100
2020-11-21 01:00:00 3.1 2 Sudoeste 5 Sudoeste 0 -- -- 100
2020-11-21 00:00:00 3.7 0 Calma 5 Sudoeste 0 -- -- 100
2020-11-20 23:00:00 4.1 2 Sur 8 Sudeste 0 -- -- 100
2020-11-20 22:00:00 4.7 0 Calma 6 Sur 0 -- -- 99
2020-11-20 21:00:00 5.4 3 Sur 5 Sur 0 -- -- 98
2020-11-20 20:00:00 6.2 3 Sur 6 Sudeste 0 -- -- 96
2020-11-20 19:00:00 7.4 3 Sudoeste 5 Sudoeste 0 -- -- 92
2020-11-20 18:00:00 9.4 0 Calma 16 Noroeste 0 -- -- 81
2020-11-20 17:00:00 10.6 9 Noroeste 21 Noroeste 0 -- -- 75
2020-11-20 16:00:00 12.2 10 Noroeste 19 Noroeste 0.2 -- -- 66
2020-11-20 15:00:00 12.2 7 Noroeste 19 Norte 0 -- -- 66
2020-11-20 14:00:00 12.6 10 Norte 21 Norte 0 -- -- 71
2020-11-20 13:00:00 12.3 9 Noroeste 17 Norte 0 -- -- 72
2020-11-20 12:00:00 12.7 4 Oeste 12 Noroeste 0 -- -- 78
2020-11-20 11:00:00 12.3 2 Sur 5 Sudoeste 0 -- -- 100
2020-11-20 10:00:00 9.8 2 Sur 4 Sudoeste 0 -- -- 100
2020-11-20 09:00:00 8.9 0 Calma 3 Sudoeste 0 -- -- 100
2020-11-20 08:00:00 8.8 0 Calma 5 Sudeste 0 -- -- 100
2020-11-20 07:00:00 8.9 0 Calma 5 Sudeste 0.6 -- -- 100
2020-11-20 06:00:00 9 0 Calma 8 Este 0.4 -- -- 100
2020-11-20 05:00:00 8.9 0 Calma 4 Sudeste 0 -- -- 100
2020-11-20 04:00:00 9 2 Nordeste 5 Sur 0 -- -- 100
2020-11-20 03:00:00 9.1 0 Calma 4 Sudoeste 0 -- -- 100
2020-11-20 02:00:00 9.3 0 Calma 9 Nordeste 0 -- -- 100
2020-11-20 01:00:00 9.3 2 Sudeste 6 Este 0 -- -- 100
2020-11-20 00:00:00 9.5 2 Sudoeste 4 Sur 0.2 -- -- 100
2020-11-19 23:00:00 9.4 2 Sur 5 Sur 0 -- -- 100
2020-11-19 22:00:00 9.5 0 Calma 3 Sur 0 -- -- 100
2020-11-19 21:00:00 9.5 0 Calma 4 Oeste 0 -- -- 100
2020-11-19 20:00:00 9.6 0 Calma 4 Sudoeste 0 -- -- 100
2020-11-19 19:00:00 10 0 Calma 5 Sudeste 0 -- -- 99
2020-11-19 18:00:00 10.3 0 Calma 5 Sur 0 -- -- 97
2020-11-19 17:00:00 10.4 3 Noroeste 18 Noroeste 0.8 -- -- 98
2020-11-19 16:00:00 10.8 7 Noroeste 23 Noroeste 0.2 -- -- 97
2020-11-19 15:00:00 11.6 8 Noroeste 17 Noroeste 0.4 -- -- 96
2020-11-19 14:00:00 12 5 Noroeste 26 Noroeste 0.6 -- -- 97
2020-11-19 13:00:00 12.5 6 Noroeste 17 Norte 0.6 -- -- 97
2020-11-19 12:00:00 12.5 4 Noroeste 12 Noroeste 0.4 -- -- 99
2020-11-19 11:00:00 12.5 3 Sudoeste 24 Norte 0.6 -- -- 98
2020-11-19 10:00:00 13.3 9 Noroeste 25 Noroeste 2.2 -- -- 99
2020-11-19 09:00:00 12.8 10 Noroeste 19 Noroeste 2 -- -- 100
2020-11-19 08:00:00 11.1 2 Sur 8 Noroeste 0.6 -- -- 100
2020-11-19 07:00:00 11.1 6 Norte 11 Noroeste 0 -- -- 100
2020-11-19 06:00:00 10.2 0 Calma 5 Norte 0 -- -- 100
2020-11-19 05:00:00 9.4 0 Calma 6 Sudeste 0 -- -- 100
2020-11-19 04:00:00 9.1 0 Calma 8 Norte 0 -- -- 100
2020-11-19 03:00:00 8.9 0 Calma 6 Noroeste 0 -- -- 99
2020-11-19 02:00:00 9.1 2 Sudoeste 7 Noroeste 0 -- -- 98
2020-11-19 01:00:00 9.7 2 Oeste 6 Noroeste 0 -- -- 98
2020-11-19 00:00:00 10.2 3 Norte 7 Norte 0 -- -- 98
2020-11-18 23:00:00 10.8 5 Noroeste 7 Norte 0 -- -- 97
2020-11-18 22:00:00 11.4 3 Noroeste 9 Noroeste 0 -- -- 94
2020-11-18 21:00:00 12.2 5 Norte 8 Norte 0 -- -- 94
2020-11-18 20:00:00 13.3 2 Noroeste 9 Sudeste 0 -- -- 88
2020-11-18 19:00:00 14.9 3 Norte 8 Noroeste 0 -- -- 81
2020-11-18 18:00:00 17.4 3 Noroeste 8 Oeste 0 -- -- 71
2020-11-18 17:00:00 21.5 5 Sudoeste 12 Noroeste 0 -- -- 52
2020-11-18 16:00:00 22.2 9 Noroeste 15 Norte 0 -- -- 51
2020-11-18 15:00:00 23.8 0 Calma 8 Oeste 0 -- -- 43
2020-11-18 14:00:00 23.9 2 Norte 12 Oeste 0 -- -- 45
2020-11-18 13:00:00 25.3 8 Sur 14 Sudoeste 0 -- -- 47
2020-11-18 12:00:00 24.2 5 Sur 16 Sur 0 -- -- 47
2020-11-18 11:00:00 21.9 6 Sur 23 Sur 0 -- -- 50
2020-11-18 10:00:00 20 12 Sudeste 33 Este 0 -- -- 50
2020-11-18 09:00:00 18.4 17 Este 40 Sudeste 0 -- -- 52
2020-11-18 08:00:00 18.1 16 Sudeste 31 Este 0 -- -- 51
2020-11-18 07:00:00 18.5 15 Sudeste 35 Sudeste 0 -- -- 47
2020-11-18 06:00:00 18.4 12 Sudeste 27 Sudeste 0 -- -- 47
2020-11-18 05:00:00 18.2 10 Sur 32 Este 0 -- -- 48
2020-11-18 04:00:00 18.4 14 Sudeste 30 Sudeste 0 -- -- 46
2020-11-18 03:00:00 18.1 14 Sur 31 Sudeste 0 -- -- 46
2020-11-18 02:00:00 18.1 14 Sur 36 Sudeste 0 -- -- 44
2020-11-18 01:00:00 17 8 Este 19 Sudeste 0 -- -- 43
2020-11-18 00:00:00 17.9 8 Sudeste 29 Sudeste 0 -- -- 42
2020-11-17 23:00:00 17.7 11 Sudeste 36 Sudeste 0 -- -- 41
2020-11-17 22:00:00 15.3 9 Este 22 Sudeste 0 -- -- 51
2020-11-17 21:00:00 11.1 11 Norte 17 Noroeste 0 -- -- 88
2020-11-17 20:00:00 11.6 9 Norte 15 Noroeste 0 -- -- 87
2020-11-17 19:00:00 11.9 10 Norte 15 Norte 0 -- -- 91
2020-11-17 18:00:00 13.3 6 Norte 9 Noroeste 0 -- -- 86
2020-11-17 17:00:00 17.1 0 Calma 2 Noroeste 0 -- -- 65
2020-11-17 16:00:00 19.2 0 Calma 5 Sur 0 -- -- 55
2020-11-17 15:00:00 19.1 0 Calma 6 Noroeste 0 -- -- 52
2020-11-17 14:00:00 17.5 0 Calma 5 Sur 0 -- -- 52
2020-11-17 13:00:00 15.5 2 Norte 4 Noroeste 0 -- -- 59
2020-11-17 12:00:00 14.8 2 Sur 5 Sur 0 -- -- 75
2020-11-17 11:00:00 11.3 2 Sudoeste 4 Sur 0 -- -- 93
2020-11-17 10:00:00 7.6 0 Calma 5 Sudeste 0 -- -- 100
2020-11-17 09:00:00 5.3 2 Sudeste 7 Sudeste 0 -- -- 100
2020-11-17 08:00:00 4.8 2 Sudoeste 5 Sur 0 -- -- 100
2020-11-17 07:00:00 5 3 Sur 8 Sudeste 0 -- -- 100
2020-11-17 06:00:00 5.2 2 Sudoeste 6 Noroeste 0 -- -- 100
2020-11-17 05:00:00 5.5 0 Calma 4 Sur 0 -- -- 100
2020-11-17 04:00:00 5.7 2 Sur 5 Sur 0 -- -- 100
2020-11-17 03:00:00 6 2 Sur 8 Sudeste 0 -- -- 100
2020-11-17 02:00:00 6.4 0 Calma 7 Noroeste 0 -- -- 100
2020-11-17 01:00:00 6.6 0 Calma 6 Sudeste 0 -- -- 100
2020-11-17 00:00:00 7 3 Sudoeste 6 Norte 0 -- -- 99
2020-11-16 23:00:00 7.8 3 Nordeste 12 Este 0 -- -- 99
2020-11-16 22:00:00 8.3 3 Sur 8 Sudeste 0 -- -- 97
2020-11-16 21:00:00 9.1 4 Sudeste 14 Este 0 -- -- 96
2020-11-16 20:00:00 9.9 2 Sur 5 Este 0 -- -- 95
2020-11-16 19:00:00 11.2 2 Este 6 Sudeste 0 -- -- 92
2020-11-16 18:00:00 12.7 0 Calma 4 Noroeste 0 -- -- 88
2020-11-16 17:00:00 15.1 0 Calma 6 Sudoeste 0 -- -- 81
2020-11-16 16:00:00 15.4 0 Calma 5 Sur 0 -- -- 78
2020-11-16 15:00:00 14.6 0 Calma 12 Norte 0 -- -- 70
2020-11-16 14:00:00 15.1 2 Norte 5 Norte 0 -- -- 78
2020-11-16 13:00:00 15.6 0 Calma 10 Sudoeste 0 -- -- 83
2020-11-16 12:00:00 14.3 6 Sur 10 Sudoeste 0 -- -- 92
2020-11-16 11:00:00 13.4 3 Norte 5 Norte 0 -- -- 99
2020-11-16 10:00:00 12 0 Calma 5 Norte 0 -- -- 100
2020-11-16 09:00:00 11.3 0 Calma 6 Sur 1.4 -- -- 100
2020-11-16 08:00:00 11.2 0 Calma 4 Sur 0.4 -- -- 100
2020-11-16 07:00:00 11.3 0 Calma 6 Sur 1.2 -- -- 100
2020-11-16 06:00:00 11.5 0 Calma 6 Oeste 1.6 -- -- 100
2020-11-16 05:00:00 11.6 2 Sur 4 Sur 1 -- -- 100
2020-11-16 04:00:00 11.7 2 Sur 7 Norte 1.4 -- -- 100
2020-11-16 03:00:00 11.7 0 Calma 9 Este 0.8 -- -- 99
2020-11-16 02:00:00 11.8 2 Sudoeste 10 Sudeste 0 -- -- 99
2020-11-16 01:00:00 12 4 Sudeste 8 Este 1 -- -- 99
2020-11-16 00:00:00 12.1 2 Este 8 Nordeste 0 -- -- 99
2020-11-15 23:00:00 12.4 2 Este 12 Este 1.2 -- -- 98
2020-11-15 22:00:00 12.9 2 Sudoeste 10 Noroeste 2.8 -- -- 98
2020-11-15 21:00:00 13.4 3 Sudoeste 14 Noroeste 2.4 -- -- 98
2020-11-15 20:00:00 13.8 5 Norte 18 Norte 4.4 -- -- 98
2020-11-15 19:00:00 14.3 0 Calma 9 Nordeste 1.8 -- -- 97
2020-11-15 18:00:00 14.7 3 Sudoeste 9 Sur 1.4 -- -- 96
2020-11-15 17:00:00 15.5 2 Sudoeste 13 Nordeste 0.2 -- -- 94
2020-11-15 16:00:00 16.7 2 Oeste 36 Noroeste 0 -- -- 89
2020-11-15 15:00:00 22 15 Sur 39 Sur 0 -- -- 57
2020-11-15 14:00:00 21.8 18 Sur 48 Sur 0 -- -- 58
2020-11-15 13:00:00 21.4 14 Sur 63 Sur 0 -- -- 58
2020-11-15 12:00:00 20.6 26 Sur 58 Sudoeste 0 -- -- 59
2020-11-15 11:00:00 20.8 25 Sur 58 Sur 0 -- -- 57
2020-11-15 10:00:00 20.1 27 Sur 72 Sur 0 -- -- 58
2020-11-15 09:00:00 18.8 22 Sur 67 Sur 0 -- -- 60
2020-11-15 08:00:00 17.5 18 Sudeste 49 Sudeste 0 -- -- 63
2020-11-15 07:00:00 17.4 16 Sur 40 Este 0 -- -- 64
2020-11-15 06:00:00 17.4 17 Sudeste 53 Este 0 -- -- 62
2020-11-15 05:00:00 17 23 Este 40 Este 0 -- -- 64
2020-11-15 04:00:00 17 19 Este 40 Sudeste 0 -- -- 65
2020-11-15 03:00:00 17.1 17 Sudeste 37 Este 0 -- -- 66
2020-11-15 02:00:00 17.1 16 Sudeste 36 Sudeste 0 -- -- 65
2020-11-15 01:00:00 16.6 18 Este 35 Este 0 -- -- 66
2020-11-15 00:00:00 16.7 17 Sudeste 34 Sudeste 0 -- -- 66
2020-11-14 23:00:00 16.9 18 Sur 48 Sudeste 0 -- -- 65
2020-11-14 22:00:00 16.8 18 Sudeste 39 Sudeste 0 -- -- 65
2020-11-14 21:00:00 16.9 18 Sur 35 Sudeste 0 -- -- 63
2020-11-14 20:00:00 17 16 Sudeste 29 Sudeste 0 -- -- 61
2020-11-14 19:00:00 16.5 14 Sur 26 Sur 0 -- -- 63
2020-11-14 18:00:00 17.1 13 Sur 39 Sur 0 -- -- 61
2020-11-14 17:00:00 17.3 10 Sur 35 Este 0 -- -- 60
2020-11-14 16:00:00 18.5 22 Sudeste 45 Sudeste 0 -- -- 56
2020-11-14 15:00:00 18.6 24 Sudeste 51 Este 0 -- -- 54
2020-11-14 14:00:00 17.9 19 Sudeste 59 Sur 0 -- -- 58
2020-11-14 13:00:00 17.7 18 Sudeste 44 Sur 0 -- -- 59
2020-11-14 12:00:00 17 12 Sur 39 Sudeste 0 -- -- 61
2020-11-14 11:00:00 17.3 16 Sudeste 35 Sur 0 -- -- 59
2020-11-14 10:00:00 18.4 9 Sudeste 27 Sur 0 -- -- 53
2020-11-14 09:00:00 15.8 7 Sur 34 Sudeste 0 -- -- 61
2020-11-14 08:00:00 15.2 17 Sudeste 43 Sur 0 -- -- 60
2020-11-14 07:00:00 13.5 15 Sudoeste 31 Sur 0 -- -- 67
2020-11-14 06:00:00 14.9 6 Sur 18 Sudoeste 0 -- -- 61
2020-11-14 05:00:00 15.5 7 Sudeste 20 Este 0 -- -- 56
2020-11-14 04:00:00 15.2 7 Este 27 Sudeste 0 -- -- 57
2020-11-14 03:00:00 14.3 9 Sur 21 Sur 0 -- -- 63
2020-11-14 02:00:00 15 11 Este 24 Sudeste 0 -- -- 61
2020-11-14 01:00:00 14.7 5 Este 18 Sudeste 0 -- -- 62
2020-11-14 00:00:00 13.8 4 Sudeste 19 Sudeste 0 -- -- 67
2020-11-13 23:00:00 13.6 5 Sudeste 14 Sudeste 0 -- -- 67
2020-11-13 22:00:00 14.2 8 Sudoeste 17 Sudeste 0 -- -- 65
2020-11-13 21:00:00 14.1 3 Nordeste 18 Este 0 -- -- 66
2020-11-13 20:00:00 14.7 4 Nordeste 17 Este 0 -- -- 65
2020-11-13 19:00:00 15.8 4 Sudeste 15 Este 0 -- -- 60
2020-11-13 18:00:00 17.4 8 Sudeste 17 Sudeste 0 -- -- 55
2020-11-13 17:00:00 19.4 8 Sur 23 Sudeste 0 -- -- 50
2020-11-13 16:00:00 21 9 Sur 20 Sudeste 0 -- -- 45
2020-11-13 15:00:00 21.3 10 Este 25 Este 0 -- -- 48
2020-11-13 14:00:00 21.7 10 Sudeste 21 Sudeste 0 -- -- 43
2020-11-13 13:00:00 21.9 7 Sur 22 Sur 0 -- -- 50
2020-11-13 12:00:00 20.7 4 Sudeste 17 Sudeste 0 -- -- 51
2020-11-13 11:00:00 18.4 8 Este 21 Este 0 -- -- 53
2020-11-13 10:00:00 18.2 12 Sudeste 24 Sudeste 0 -- -- 58
2020-11-13 09:00:00 15.4 5 Este 15 Sur 0 -- -- 72
2020-11-13 08:00:00 15.6 4 Sur 16 Sudeste 0 -- -- 62
2020-11-13 07:00:00 16.3 9 Sudeste 21 Sur 0 -- -- 56
2020-11-13 06:00:00 16.4 8 Sur 28 Sudeste 0 -- -- 55
2020-11-13 05:00:00 16.5 16 Sudeste 32 Sudeste 0 -- -- 52
2020-11-13 04:00:00 16.6 13 Este 30 Este 0 -- -- 47
2020-11-13 03:00:00 17.1 14 Sudeste 38 Sudeste 0 -- -- 46
2020-11-13 02:00:00 17.1 15 Sudeste 35 Sudeste 0 -- -- 48
2020-11-13 01:00:00 17 18 Sudeste 33 Sudeste 0 -- -- 51
2020-11-13 00:00:00 16.5 12 Sudeste 23 Sudeste 0 -- -- 50
2020-11-12 23:00:00 15.4 3 Norte 12 Nordeste 0 -- -- 57
2020-11-12 22:00:00 13.9 6 Norte 15 Noroeste 0 -- -- 69
2020-11-12 21:00:00 13.8 8 Norte 18 Sudeste 0 -- -- 71
2020-11-12 20:00:00 17.5 10 Este 31 Sudeste 0 -- -- 48
2020-11-12 19:00:00 17.6 15 Sudeste 28 Sudeste 0 -- -- 49
2020-11-12 18:00:00 18 9 Sudeste 30 Sudeste 0 -- -- 49
2020-11-12 17:00:00 20.4 12 Sur 22 Sur 0 -- -- 46
2020-11-12 16:00:00 22.6 5 Sur 14 Sur 0 -- -- 53
2020-11-12 15:00:00 21.3 4 Oeste 9 Oeste 0 -- -- 50
2020-11-12 14:00:00 20.3 3 Noroeste 6 Noroeste 0 -- -- 53
2020-11-12 13:00:00 19.4 0 Calma 6 Oeste 0 -- -- 59
2020-11-12 12:00:00 16.2 0 Calma 4 Sur 0 -- -- 71
2020-11-12 11:00:00 14.1 0 Calma 4 Norte 0 -- -- 77
2020-11-12 10:00:00 12.5 2 Norte 5 Noroeste 0 -- -- 81
2020-11-12 09:00:00 10.3 3 Nordeste 12 Norte 0 -- -- 90
2020-11-12 08:00:00 9 3 Norte 17 Noroeste 0 -- -- 92
2020-11-12 07:00:00 9.7 5 Noroeste 10 Norte 0 -- -- 93
2020-11-12 06:00:00 10.7 5 Norte 17 Noroeste 0 -- -- 89
2020-11-12 05:00:00 11.3 12 Norte 14 Norte 0 -- -- 89
2020-11-12 04:00:00 12.2 9 Norte 15 Noroeste 0 -- -- 85
2020-11-12 03:00:00 12.7 8 Noroeste 14 Noroeste 0 -- -- 84
2020-11-12 02:00:00 13.7 5 Noroeste 14 Noroeste 0 -- -- 78
2020-11-12 01:00:00 15.6 9 Sudeste 24 Sudeste 0 -- -- 59
2020-11-12 00:00:00 16 14 Sudeste 27 Sudeste 0 -- -- 58
2020-11-11 23:00:00 16.1 7 Sur 26 Sudeste 0 -- -- 57
2020-11-11 22:00:00 16.4 9 Sur 24 Este 0 -- -- 56
2020-11-11 21:00:00 16.2 14 Sudeste 24 Sudeste 0 -- -- 54
2020-11-11 20:00:00 16.5 10 Sur 32 Este 0 -- -- 59
2020-11-11 19:00:00 16.7 12 Sur 27 Sudoeste 0 -- -- 55
2020-11-11 18:00:00 16.6 13 Sur 33 Sur 0 -- -- 59
2020-11-11 17:00:00 18.1 14 Sur 30 Sudeste 0 -- -- 55
2020-11-11 16:00:00 19.3 17 Sudeste 29 Sudeste 0 -- -- 53
2020-11-11 15:00:00 19.2 18 Sudeste 38 Sudeste 0 -- -- 49
2020-11-11 14:00:00 19 11 Este 33 Este 0 -- -- 54
2020-11-11 13:00:00 19.2 12 Sudeste 34 Este 0 -- -- 58
2020-11-11 12:00:00 18.5 12 Este 30 Sudeste 0 -- -- 56
2020-11-11 11:00:00 17.3 12 Sudeste 35 Sudeste 0 -- -- 63
2020-11-11 10:00:00 15.6 14 Sudeste 25 Sudeste 0 -- -- 73
2020-11-11 09:00:00 12.2 14 Este 23 Este 0 -- -- 94
2020-11-11 08:00:00 9.3 5 Norte 15 Norte 0.2 -- -- 100
2020-11-11 07:00:00 7.6 6 Norte 13 Norte 0 -- -- 100
2020-11-11 06:00:00 7.8 5 Norte 12 Norte 0 -- -- 100
2020-11-11 05:00:00 7.7 2 Este 8 Norte 0 -- -- 100
2020-11-11 04:00:00 7.9 0 Calma 6 Noroeste 0 -- -- 100
2020-11-11 03:00:00 7.5 0 Calma 5 Sur 0 -- -- 100
2020-11-11 02:00:00 8 0 Calma 5 Sudoeste 0 -- -- 100
2020-11-11 01:00:00 8.4 3 Sudoeste 6 Nordeste 0 -- -- 100
2020-11-11 00:00:00 8.8 0 Calma 5 Sudeste 0 -- -- 100
2020-11-10 23:00:00 9.5 4 Sudeste 10 Sudeste 0 -- -- 100
2020-11-10 22:00:00 10.1 2 Sur 8 Sudeste 0 -- -- 100
2020-11-10 21:00:00 10.7 3 Sudoeste 7 Sudeste 0 -- -- 99
2020-11-10 20:00:00 11.7 2 Este 8 Este 0 -- -- 100
2020-11-10 19:00:00 12.4 2 Nordeste 4 Nordeste 0 -- -- 99
2020-11-10 18:00:00 13.3 0 Calma 5 Oeste 0 -- -- 97
2020-11-10 17:00:00 14.5 4 Sudoeste 7 Sudoeste 0 -- -- 94
2020-11-10 16:00:00 15 2 Oeste 6 Sur 0.8 -- -- 92
2020-11-10 15:00:00 15.6 6 Sudoeste 10 Sudoeste 0 -- -- 92
2020-11-10 14:00:00 15.5 0 Calma 2 Sudoeste 0 -- -- 94
2020-11-10 13:00:00 14.9 0 Calma 3 Este 0.4 -- -- 98
2020-11-10 12:00:00 14.1 0 Calma 2 Noroeste 0.6 -- -- 98
2020-11-10 11:00:00 13.6 0 Calma 3 Nordeste 0 -- -- 100
2020-11-10 10:00:00 11.7 0 Calma 4 Nordeste 0.8 -- -- 100
2020-11-10 09:00:00 10.6 0 Calma 7 Sudoeste 4.8 -- -- 100
2020-11-10 08:00:00 10.4 2 Norte 8 Sudoeste 1.6 -- -- 99
2020-11-10 07:00:00 9.8 0 Calma 4 Sur 0 -- -- 99
2020-11-10 06:00:00 9.5 2 Sur 5 Sudoeste 0 -- -- 99
2020-11-10 05:00:00 9.2 0 Calma 5 Sudeste 0 -- -- 99
2020-11-10 04:00:00 8.8 0 Calma 5 Sudoeste 0 -- -- 99
2020-11-10 03:00:00 8.8 2 Sudeste 6 Sudeste 0 -- -- 99
2020-11-10 02:00:00 8.6 0 Calma 6 Sur 0 -- -- 99
2020-11-10 01:00:00 8.8 0 Calma 4 Sur 0 -- -- 98
2020-11-10 00:00:00 9.3 0 Calma 4 Noroeste 0 -- -- 96
2020-11-09 23:00:00 9.8 3 Sur 5 Norte 0 -- -- 95
2020-11-09 22:00:00 10.7 2 Noroeste 5 Noroeste 0 -- -- 93
2020-11-09 21:00:00 11.9 4 Noroeste 6 Norte 0 -- -- 91
2020-11-09 20:00:00 12.8 5 Noroeste 7 Noroeste 0 -- -- 89
2020-11-09 19:00:00 14.3 5 Noroeste 7 Noroeste 0 -- -- 82
2020-11-09 18:00:00 16.9 2 Nordeste 12 Noroeste 0 -- -- 69
2020-11-09 17:00:00 19.2 5 Norte 22 Sur 0 -- -- 57
2020-11-09 16:00:00 21.4 7 Sur 14 Sur 0 -- -- 51
2020-11-09 15:00:00 22.3 9 Sudeste 22 Sur 0 -- -- 49
2020-11-09 14:00:00 21.7 15 Sur 27 Sudoeste 0 -- -- 50
2020-11-09 13:00:00 20.7 12 Sur 26 Sudoeste 0 -- -- 52
2020-11-09 12:00:00 17.9 5 Nordeste 17 Sudeste 0 -- -- 62
2020-11-09 11:00:00 17.1 11 Sur 22 Sur 0 -- -- 62
2020-11-09 10:00:00 16.4 8 Sur 13 Sur 0 -- -- 65
2020-11-09 09:00:00 15.8 4 Noroeste 17 Este 0 -- -- 70
2020-11-09 08:00:00 16.2 10 Sudeste 18 Sudeste 0 -- -- 62
2020-11-09 07:00:00 16.4 8 Sudeste 24 Sudeste 0 -- -- 61
2020-11-09 06:00:00 16.3 6 Sudeste 22 Sudeste 0 -- -- 60
2020-11-09 05:00:00 16.4 10 Sur 26 Sudeste 0 -- -- 59
2020-11-09 04:00:00 16.7 12 Sudeste 25 Este 0 -- -- 57
2020-11-09 03:00:00 16.7 11 Sudeste 27 Sudeste 0 -- -- 58
2020-11-09 02:00:00 17.1 17 Sur 30 Sudeste 0 -- -- 55
2020-11-09 01:00:00 17.3 17 Sudeste 38 Sudoeste 0 -- -- 54
2020-11-09 00:00:00 17.5 15 Sur 39 Sur 0 -- -- 57
2020-11-08 23:00:00 17.7 12 Sur 35 Sur 0 -- -- 55
2020-11-08 22:00:00 17.8 18 Sur 39 Sudeste 0 -- -- 56
2020-11-08 21:00:00 17.8 11 Sudeste 31 Sudeste 0 -- -- 58
2020-11-08 20:00:00 17.8 18 Sudeste 40 Sur 0 -- -- 58
2020-11-08 19:00:00 17.6 20 Sur 34 Sur 0 -- -- 59
2020-11-08 18:00:00 17.7 17 Sur 31 Sudeste 0 -- -- 61
2020-11-08 17:00:00 18.9 18 Sur 34 Sur 0 -- -- 56
2020-11-08 16:00:00 20.1 10 Sudeste 33 Este 0 -- -- 53
2020-11-08 15:00:00 20.1 12 Sudeste 29 Sudeste 0 -- -- 56
2020-11-08 14:00:00 19.6 16 Sudeste 36 Sudeste 0 -- -- 60
2020-11-08 13:00:00 19 20 Sudeste 48 Sudeste 0 -- -- 58
2020-11-08 12:00:00 19.3 20 Sudeste 36 Sudeste 0 -- -- 55
2020-11-08 11:00:00 19.3 12 Sudeste 25 Sur 0 -- -- 56
2020-11-08 10:00:00 16.7 15 Sur 29 Sudeste 0 -- -- 65
2020-11-08 09:00:00 16.1 8 Sudeste 26 Sudeste 0 -- -- 65
2020-11-08 08:00:00 15.3 14 Sudeste 32 Sudeste 0 -- -- 68
2020-11-08 07:00:00 15.4 21 Sudeste 33 Sudeste 0 -- -- 69
2020-11-08 06:00:00 15.2 7 Sur 29 Sur 0 -- -- 69
2020-11-08 05:00:00 15.9 8 Sudeste 29 Sudeste 0 -- -- 67
2020-11-08 04:00:00 16.2 9 Sur 27 Sudeste 0 -- -- 67
2020-11-08 03:00:00 16.1 10 Sudeste 27 Este 0 -- -- 69
2020-11-08 02:00:00 16.5 11 Sudeste 22 Sudeste 0 -- -- 67
2020-11-08 01:00:00 16.5 13 Sudeste 23 Sudeste 0 -- -- 67
2020-11-08 00:00:00 15.8 10 Este 23 Nordeste 0 -- -- 73
2020-11-07 23:00:00 16.5 10 Este 30 Sur 0 -- -- 68
2020-11-07 22:00:00 16.2 12 Sur 27 Sur 0 -- -- 68
2020-11-07 21:00:00 15.7 13 Sur 24 Sur 0 -- -- 72
2020-11-07 20:00:00 16.2 13 Sur 29 Sudeste 0 -- -- 71
2020-11-07 19:00:00 16 10 Sudeste 22 Sur 0 -- -- 75
2020-11-07 18:00:00 16.6 7 Sudeste 26 Sudeste 0.2 -- -- 77
2020-11-07 17:00:00 17.4 14 Sur 30 Sudeste 0 -- -- 73
2020-11-07 16:00:00 17.8 14 Sur 28 Sudeste 0 -- -- 70
2020-11-07 15:00:00 17.5 9 Sur 38 Sudeste 0 -- -- 70
2020-11-07 14:00:00 17.7 20 Sur 37 Sudeste 0 -- -- 69
2020-11-07 13:00:00 17.6 15 Sudeste 32 Sudeste 0 -- -- 72
2020-11-07 12:00:00 16.6 15 Sudeste 38 Sudeste 0 -- -- 76
2020-11-07 11:00:00 15.3 12 Sur 35 Sudeste 0.4 -- -- 81
2020-11-07 10:00:00 15.2 8 Sudeste 31 Este 1 -- -- 82
2020-11-07 09:00:00 16.1 13 Este 48 Nordeste 2.6 -- -- 80
2020-11-07 08:00:00 17.3 5 Sur 11 Oeste 0.4 -- -- 83
2020-11-07 07:00:00 19.6 5 Sudoeste 28 Sudeste 0 -- -- 66
2020-11-07 06:00:00 20.3 16 Sudeste 37 Sur 0 -- -- 61
2020-11-07 05:00:00 20.1 14 Sur 40 Sudeste 0 -- -- 62
2020-11-07 04:00:00 20.4 12 Sur 32 Este 0 -- -- 60
2020-11-07 03:00:00 20.5 6 Sur 33 Nordeste 0 -- -- 60
2020-11-07 02:00:00 20.5 17 Este 45 Sur 0 -- -- 60
2020-11-07 01:00:00 20.6 23 Sudeste 51 Sudeste 0 -- -- 60
2020-11-07 00:00:00 20.7 24 Sudeste 59 Sur 0 -- -- 59
2020-11-06 23:00:00 20.7 18 Sudeste 46 Este 0 -- -- 59
2020-11-06 22:00:00 20.8 15 Sudeste 48 Sudeste 0 -- -- 58
2020-11-06 21:00:00 20.8 23 Sur 55 Sudeste 0 -- -- 58
2020-11-06 20:00:00 20.7 18 Sur 40 Sudeste 0 -- -- 58
2020-11-06 19:00:00 20.7 16 Sudeste 38 Sudeste 0 -- -- 57
2020-11-06 18:00:00 20.4 11 Este 41 Sudeste 0 -- -- 59
2020-11-06 17:00:00 20.6 22 Sur 58 Sudeste 0 -- -- 59
2020-11-06 16:00:00 20.8 14 Sudoeste 50 Sudeste 0 -- -- 59
2020-11-06 15:00:00 21.4 27 Sur 58 Sur 0 -- -- 57
2020-11-06 14:00:00 21.3 23 Sudeste 60 Sudeste 0 -- -- 59
2020-11-06 13:00:00 20.8 21 Sudeste 49 Sudeste 0 -- -- 59
2020-11-06 12:00:00 20 24 Sur 55 Sudeste 0 -- -- 63
2020-11-06 11:00:00 19.3 24 Este 51 Sudeste 0 -- -- 65
2020-11-06 10:00:00 19 20 Sur 55 Sur 0 -- -- 66
2020-11-06 09:00:00 18.6 20 Sur 64 Sudeste 0 -- -- 67
2020-11-06 08:00:00 18.6 18 Sur 49 Este 0 -- -- 65
2020-11-06 07:00:00 18.5 15 Sur 61 Sudeste 0 -- -- 66
2020-11-06 06:00:00 18.1 22 Sudeste 57 Sudeste 0 -- -- 65
2020-11-06 05:00:00 17.7 15 Sudeste 40 Sudeste 0 -- -- 66
2020-11-06 04:00:00 17.4 12 Sudeste 33 Sur 0 -- -- 67
2020-11-06 03:00:00 17.6 15 Este 39 Este 0 -- -- 66
2020-11-06 02:00:00 17.3 9 Sudeste 28 Sudeste 0 -- -- 63
2020-11-06 01:00:00 17.4 13 Sur 35 Sur 0 -- -- 61
2020-11-06 00:00:00 17.7 15 Sur 33 Sudeste 0 -- -- 60
2020-11-05 23:00:00 17.3 12 Este 38 Este 0 -- -- 61
2020-11-05 22:00:00 17.1 9 Sudeste 39 Sudeste 0 -- -- 64
2020-11-05 21:00:00 15.7 11 Este 22 Sudeste 0 -- -- 70
2020-11-05 20:00:00 15.5 12 Este 22 Este 0 -- -- 72
2020-11-05 19:00:00 13 7 Sudeste 13 Sur 0 -- -- 86
2020-11-05 18:00:00 13.9 3 Norte 8 Noroeste 0 -- -- 86
2020-11-05 17:00:00 17 0 Calma 9 Sudoeste 0 -- -- 70
2020-11-05 16:00:00 18.3 0 Calma 9 Sudoeste 0 -- -- 66
2020-11-05 15:00:00 19.5 3 Sur 8 Sudoeste 0 -- -- 63
2020-11-05 14:00:00 18.4 2 Sur 9 Sur 0 -- -- 65
2020-11-05 13:00:00 17.2 4 Sur 9 Sur 0 -- -- 74
2020-11-05 12:00:00 14.3 0 Calma 5 Sudeste 0 -- -- 73
2020-11-05 11:00:00 12 3 Sudeste 5 Sudoeste 0 -- -- 85
2020-11-05 10:00:00 8.3 2 Sur 5 Sur 0 -- -- 100
2020-11-05 09:00:00 6.1 0 Calma 5 Sur 0 -- -- 100
2020-11-05 08:00:00 5.2 2 Sur 5 Norte 0 -- -- 100
2020-11-05 07:00:00 5.6 3 Sur 6 Sudeste 0 -- -- 100
2020-11-05 06:00:00 6.1 3 Sudoeste 4 Sudoeste 0 -- -- 100
2020-11-05 05:00:00 6.7 2 Sudoeste 6 Norte 0 -- -- 100
2020-11-05 04:00:00 6.9 0 Calma 5 Sudoeste 0 -- -- 100
2020-11-05 03:00:00 7 0 Calma 5 Este 0 -- -- 100
2020-11-05 02:00:00 6.9 2 Sudoeste 4 Sudoeste 0 -- -- 100
2020-11-05 01:00:00 6.8 3 Sudoeste 5 Sur 0 -- -- 99
2020-11-05 00:00:00 7 0 Calma 6 Sur 0 -- -- 98
2020-11-04 23:00:00 7.6 2 Sudoeste 6 Nordeste 0 -- -- 97
2020-11-04 22:00:00 8.5 4 Sudeste 9 Nordeste 0 -- -- 90
2020-11-04 21:00:00 8.8 4 Sudoeste 6 Sudoeste 0 -- -- 96
2020-11-04 20:00:00 8.9 4 Sudoeste 7 Oeste 0 -- -- 93
2020-11-04 19:00:00 9.5 3 Sudoeste 6 Este 0 -- -- 87
2020-11-04 18:00:00 10 0 Calma 10 Este 0 -- -- 80
2020-11-04 17:00:00 10.2 2 Noroeste 12 Noroeste 0 -- -- 84
2020-11-04 16:00:00 10.2 3 Oeste 9 Norte 0 -- -- 87
2020-11-04 15:00:00 10.6 6 Nordeste 13 Nordeste 0 -- -- 84
2020-11-04 14:00:00 10.9 2 Noroeste 6 Noroeste 0 -- -- 86
2020-11-04 13:00:00 10.3 3 Sudoeste 6 Sudoeste 0 -- -- 99
2020-11-04 12:00:00 9.2 3 Sudoeste 9 Sudoeste 0 -- -- 100
2020-11-04 11:00:00 8.2 3 Sur 6 Sudoeste 0 -- -- 100
2020-11-04 10:00:00 6.3 0 Calma 10 Sudeste 0 -- -- 100
2020-11-04 09:00:00 6.1 3 Sudeste 10 Este 0 -- -- 100
2020-11-04 08:00:00 6.4 6 Este 11 Este 0 -- -- 100
2020-11-04 07:00:00 6.7 2 Sur 8 Sudeste 0 -- -- 100
2020-11-04 06:00:00 7 2 Sur 5 Sudeste 0 -- -- 100
2020-11-04 05:00:00 7.1 2 Sudeste 9 Este 0 -- -- 100
2020-11-04 04:00:00 7.5 3 Sudoeste 4 Sudoeste 0 -- -- 100
2020-11-04 03:00:00 8 0 Calma 6 Nordeste 1.8 -- -- 100
2020-11-04 02:00:00 8.3 3 Sur 10 Oeste 0.8 -- -- 100
2020-11-04 01:00:00 8.4 2 Sudoeste 4 Sur 0 -- -- 100
2020-11-04 00:00:00 9 3 Sur 7 Sudeste 1.2 -- -- 100
2020-11-03 23:00:00 9.2 2 Oeste 4 Sur 0.6 -- -- 100
2020-11-03 22:00:00 9.5 0 Calma 6 Sudoeste 0.6 -- -- 100
2020-11-03 21:00:00 9.6 0 Calma 3 Sudoeste 0 -- -- 100
2020-11-03 20:00:00 10 2 Sudoeste 8 Sur 0.6 -- -- 100
2020-11-03 19:00:00 10.3 2 Sur 8 Oeste 0.2 -- -- 99
2020-11-03 18:00:00 10.5 3 Oeste 11 Sudoeste 1 -- -- 98
2020-11-03 17:00:00 10.9 4 Sudoeste 19 Sudoeste 1.2 -- -- 98
2020-11-03 16:00:00 11.1 3 Oeste 21 Noroeste 2.4 -- -- 97
2020-11-03 15:00:00 11.8 6 Noroeste 20 Nordeste 1.2 -- -- 97
2020-11-03 14:00:00 12.5 2 Norte 13 Nordeste 1.2 -- -- 95
2020-11-03 13:00:00 13.1 6 Norte 22 Nordeste 0.2 -- -- 92
2020-11-03 12:00:00 13.5 0 Calma 5 Este 0 -- -- 91
2020-11-03 11:00:00 12.5 0 Calma 6 Norte 0 -- -- 100
2020-11-03 10:00:00 11.5 0 Calma 5 Nordeste 0 -- -- 100
2020-11-03 09:00:00 11.2 3 Sudeste 6 Sudeste 0 -- -- 100
2020-11-03 08:00:00 11 2 Sur 9 Noroeste 0.6 -- -- 100
2020-11-03 07:00:00 11.3 2 Sudoeste 6 Sudoeste 0.4 -- -- 99
2020-11-03 06:00:00 11.4 2 Sudoeste 20 Noroeste 2.4 -- -- 98
2020-11-03 05:00:00 11.7 2 Noroeste 11 Norte 1.2 -- -- 100
2020-11-03 04:00:00 11.7 0 Calma 5 Sudoeste 1.2 -- -- 100
2020-11-03 03:00:00 11.9 2 Sudoeste 12 Noroeste 0.8 -- -- 100
2020-11-03 02:00:00 12.3 4 Noroeste 6 Oeste 0.8 -- -- 100
2020-11-03 01:00:00 12.5 0 Calma 4 Sur 0.4 -- -- 100
2020-11-03 00:00:00 12.7 0 Calma 5 Oeste 0 -- -- 99
2020-11-02 23:00:00 12.8 4 Sudoeste 11 Noroeste 1 -- -- 99
2020-11-02 22:00:00 13.3 2 Sudeste 9 Norte 0.4 -- -- 99
2020-11-02 21:00:00 13.5 4 Norte 8 Norte 0.4 -- -- 99
2020-11-02 20:00:00 13.6 2 Norte 12 Sudoeste 0.8 -- -- 97
2020-11-02 19:00:00 14 4 Sur 14 Sudoeste 0.8 -- -- 97
2020-11-02 18:00:00 14.7 4 Sudoeste 22 Norte 3 -- -- 94
2020-11-02 17:00:00 16.8 3 Noroeste 23 Nordeste 0.6 -- -- 92
2020-11-02 16:00:00 21.7 16 Norte 42 Noroeste 0 -- -- 68
2020-11-02 15:00:00 24.3 3 Sudoeste 10 Sudoeste 0 -- -- 51
2020-11-02 14:00:00 23.9 5 Sudoeste 16 Sudoeste 0 -- -- 54
2020-11-02 13:00:00 23.3 6 Sudoeste 26 Oeste 0 -- -- 55
2020-11-02 12:00:00 23.7 8 Sudoeste 28 Sur 0 -- -- 54
2020-11-02 11:00:00 23 14 Sur 33 Sur 0 -- -- 57
2020-11-02 10:00:00 15.7 3 Noroeste 10 Norte 0 -- -- 89
2020-11-02 09:00:00 14.6 6 Norte 9 Norte 0 -- -- 92
2020-11-02 08:00:00 14.6 3 Noroeste 7 Noroeste 0 -- -- 91
2020-11-02 07:00:00 15.7 3 Sudoeste 12 Norte 0 -- -- 82
2020-11-02 06:00:00 17.6 2 Sudoeste 15 Nordeste 0 -- -- 70
2020-11-02 05:00:00 19.9 6 Nordeste 21 Este 0 -- -- 62
2020-11-02 04:00:00 20.5 7 Nordeste 23 Sudeste 0 -- -- 59
2020-11-02 03:00:00 20.8 10 Este 21 Este 0 -- -- 60
2020-11-02 02:00:00 21.6 9 Sudeste 23 Este 0 -- -- 58
2020-11-02 01:00:00 21.8 14 Este 28 Este 0 -- -- 58
2020-11-02 00:00:00 22 10 Este 23 Este 0 -- -- 57